sensor_id;sensor_type;location;lat;lon;timestamp;pressure;altitude;pressure_sealevel;temperature;humidity
22964;BME280;11648;49.306;6.934;2023-03-23T00:01:08;97677.84;;;17.22;48.70
22964;BME280;11648;49.306;6.934;2023-03-23T00:03:41;97676.25;;;17.01;48.68
22964;BME280;11648;49.306;6.934;2023-03-23T00:06:08;97666.47;;;16.85;49.23
22964;BME280;11648;49.306;6.934;2023-03-23T00:08:37;97669.91;;;17.04;49.21
22964;BME280;11648;49.306;6.934;2023-03-23T00:11:04;97666.41;;;17.03;48.92
22964;BME280;11648;49.306;6.934;2023-03-23T00:13:30;97666.03;;;17.11;49.01
22964;BME280;11648;49.306;6.934;2023-03-23T00:15:56;97655.16;;;17.33;48.62
22964;BME280;11648;49.306;6.934;2023-03-23T00:18:25;97662.97;;;17.18;48.96
22964;BME280;11648;49.306;6.934;2023-03-23T00:20:59;97665.16;;;17.10;49.15
22964;BME280;11648;49.306;6.934;2023-03-23T00:23:25;97660.31;;;17.36;48.63
22964;BME280;11648;49.306;6.934;2023-03-23T00:25:55;97661.56;;;17.28;48.49
22964;BME280;11648;49.306;6.934;2023-03-23T00:28:22;97658.16;;;17.26;49.05
22964;BME280;11648;49.306;6.934;2023-03-23T00:30:58;97654.78;;;17.23;49.03
22964;BME280;11648;49.306;6.934;2023-03-23T00:33:26;97645.38;;;17.16;48.84
22964;BME280;11648;49.306;6.934;2023-03-23T00:35:52;97639.91;;;17.19;48.98
22964;BME280;11648;49.306;6.934;2023-03-23T00:38:22;97636.47;;;17.68;48.61
22964;BME280;11648;49.306;6.934;2023-03-23T00:40:49;97637.56;;;17.47;49.04
22964;BME280;11648;49.306;6.934;2023-03-23T00:43:19;97642.44;;;17.73;48.54
22964;BME280;11648;49.306;6.934;2023-03-23T00:45:45;97640.34;;;17.63;48.51
22964;BME280;11648;49.306;6.934;2023-03-23T00:48:22;97636.97;;;17.59;48.21
22964;BME280;11648;49.306;6.934;2023-03-23T00:50:49;97639.84;;;17.38;48.54
22964;BME280;11648;49.306;6.934;2023-03-23T00:53:15;97630.84;;;17.57;48.09
22964;BME280;11648;49.306;6.934;2023-03-23T00:55:42;97619.09;;;17.61;48.71
22964;BME280;11648;49.306;6.934;2023-03-23T00:58:08;97627.91;;;17.63;49.39
22964;BME280;11648;49.306;6.934;2023-03-23T01:00:36;97618.31;;;17.76;49.31
22964;BME280;11648;49.306;6.934;2023-03-23T01:03:02;97614.53;;;17.81;49.30
22964;BME280;11648;49.306;6.934;2023-03-23T01:05:28;97610.50;;;17.73;49.31
22964;BME280;11648;49.306;6.934;2023-03-23T01:08:00;97601.28;;;17.63;49.92
22964;BME280;11648;49.306;6.934;2023-03-23T01:10:30;97599.38;;;17.65;51.80
22964;BME280;11648;49.306;6.934;2023-03-23T01:13:01;97604.75;;;17.81;52.14
22964;BME280;11648;49.306;6.934;2023-03-23T01:15:28;97600.81;;;17.38;50.74
22964;BME280;11648;49.306;6.934;2023-03-23T01:17:54;97601.81;;;17.18;51.34
22964;BME280;11648;49.306;6.934;2023-03-23T01:20:20;97608.59;;;16.90;52.40
22964;BME280;11648;49.306;6.934;2023-03-23T01:22:46;97602.03;;;16.97;52.00
22964;BME280;11648;49.306;6.934;2023-03-23T01:25:12;97602.34;;;17.25;51.21
22964;BME280;11648;49.306;6.934;2023-03-23T01:27:39;97593.44;;;17.09;51.02
22964;BME280;11648;49.306;6.934;2023-03-23T01:30:06;97596.97;;;17.26;50.51
22964;BME280;11648;49.306;6.934;2023-03-23T01:32:33;97588.84;;;17.12;51.03
22964;BME280;11648;49.306;6.934;2023-03-23T01:34:58;97590.84;;;17.07;51.07
22964;BME280;11648;49.306;6.934;2023-03-23T01:37:24;97601.31;;;16.93;50.55
22964;BME280;11648;49.306;6.934;2023-03-23T01:39:53;97603.44;;;16.87;50.85
22964;BME280;11648;49.306;6.934;2023-03-23T01:42:24;97589.28;;;17.03;50.39
22964;BME280;11648;49.306;6.934;2023-03-23T01:47:20;97575.19;;;17.36;49.72
22964;BME280;11648;49.306;6.934;2023-03-23T01:49:50;97576.69;;;17.41;49.55
22964;BME280;11648;49.306;6.934;2023-03-23T01:52:23;97575.81;;;17.58;49.33
22964;BME280;11648;49.306;6.934;2023-03-23T01:54:55;97576.53;;;17.44;49.84
22964;BME280;11648;49.306;6.934;2023-03-23T01:57:23;97578.84;;;17.50;50.47
22964;BME280;11648;49.306;6.934;2023-03-23T01:59:55;97581.16;;;17.23;51.71
22964;BME280;11648;49.306;6.934;2023-03-23T02:02:41;97583.72;;;17.42;52.19
22964;BME280;11648;49.306;6.934;2023-03-23T02:05:11;97594.09;;;17.31;52.96
22964;BME280;11648;49.306;6.934;2023-03-23T02:07:37;97594.84;;;17.33;53.39
22964;BME280;11648;49.306;6.934;2023-03-23T02:10:05;97596.63;;;17.50;54.02
22964;BME280;11648;49.306;6.934;2023-03-23T02:12:33;97592.56;;;17.43;53.91
22964;BME280;11648;49.306;6.934;2023-03-23T02:14:59;97582.63;;;17.46;54.48
22964;BME280;11648;49.306;6.934;2023-03-23T02:20:36;97581.88;;;17.27;54.16
22964;BME280;11648;49.306;6.934;2023-03-23T02:26:19;97580.00;;;17.12;55.66
22964;BME280;11648;49.306;6.934;2023-03-23T02:32:04;97572.88;;;17.12;55.19
22964;BME280;11648;49.306;6.934;2023-03-23T02:34:49;97582.00;;;16.72;56.82
22964;BME280;11648;49.306;6.934;2023-03-23T02:37:24;97578.97;;;16.97;55.55
22964;BME280;11648;49.306;6.934;2023-03-23T02:39:56;97592.81;;;17.04;57.28
22964;BME280;11648;49.306;6.934;2023-03-23T02:42:28;97585.91;;;16.83;55.80
22964;BME280;11648;49.306;6.934;2023-03-23T02:44:58;97584.09;;;16.66;54.92
22964;BME280;11648;49.306;6.934;2023-03-23T02:47:29;97587.13;;;16.58;57.29
22964;BME280;11648;49.306;6.934;2023-03-23T02:49:56;97586.66;;;16.67;57.22
22964;BME280;11648;49.306;6.934;2023-03-23T02:52:28;97582.09;;;16.52;57.24
22964;BME280;11648;49.306;6.934;2023-03-23T02:54:56;97576.19;;;16.46;58.86
22964;BME280;11648;49.306;6.934;2023-03-23T02:57:24;97585.50;;;16.54;59.25
22964;BME280;11648;49.306;6.934;2023-03-23T02:59:53;97573.47;;;16.66;59.78
22964;BME280;11648;49.306;6.934;2023-03-23T03:02:35;97572.94;;;16.76;61.53
22964;BME280;11648;49.306;6.934;2023-03-23T03:08:44;97566.25;;;16.13;61.06
22964;BME280;11648;49.306;6.934;2023-03-23T03:11:13;97567.91;;;16.16;60.65
22964;BME280;11648;49.306;6.934;2023-03-23T03:16:52;97579.66;;;15.92;62.37
22964;BME280;11648;49.306;6.934;2023-03-23T03:21:46;97591.78;;;15.78;63.61
22964;BME280;11648;49.306;6.934;2023-03-23T03:24:19;97587.47;;;15.76;64.18
22964;BME280;11648;49.306;6.934;2023-03-23T03:26:51;97584.78;;;15.57;64.84
22964;BME280;11648;49.306;6.934;2023-03-23T03:29:30;97588.09;;;15.62;65.29
22964;BME280;11648;49.306;6.934;2023-03-23T03:31:58;97594.84;;;15.69;65.39
22964;BME280;11648;49.306;6.934;2023-03-23T03:34:26;97593.13;;;15.68;64.85
22964;BME280;11648;49.306;6.934;2023-03-23T03:36:54;97594.63;;;15.55;66.36
22964;BME280;11648;49.306;6.934;2023-03-23T03:39:25;97598.88;;;15.38;66.98
22964;BME280;11648;49.306;6.934;2023-03-23T03:41:52;97605.34;;;15.52;67.27
22964;BME280;11648;49.306;6.934;2023-03-23T03:44:18;97602.72;;;15.71;67.74
22964;BME280;11648;49.306;6.934;2023-03-23T03:46:44;97612.91;;;15.61;67.85
22964;BME280;11648;49.306;6.934;2023-03-23T03:49:11;97610.31;;;15.60;67.68
22964;BME280;11648;49.306;6.934;2023-03-23T03:51:41;97623.31;;;15.85;67.96
22964;BME280;11648;49.306;6.934;2023-03-23T03:54:13;97611.13;;;15.62;68.56
22964;BME280;11648;49.306;6.934;2023-03-23T03:56:39;97608.38;;;15.43;69.21
22964;BME280;11648;49.306;6.934;2023-03-23T03:59:24;97614.94;;;15.34;69.90
22964;BME280;11648;49.306;6.934;2023-03-23T04:02:10;97611.31;;;14.95;71.62
22964;BME280;11648;49.306;6.934;2023-03-23T04:04:39;97617.13;;;15.05;71.91
22964;BME280;11648;49.306;6.934;2023-03-23T04:07:07;97615.06;;;15.31;71.24
22964;BME280;11648;49.306;6.934;2023-03-23T04:09:32;97615.38;;;15.04;73.79
22964;BME280;11648;49.306;6.934;2023-03-23T04:11:58;97603.28;;;15.18;72.96
22964;BME280;11648;49.306;6.934;2023-03-23T04:14:42;97602.41;;;15.18;72.80
22964;BME280;11648;49.306;6.934;2023-03-23T04:17:08;97614.88;;;15.36;72.95
22964;BME280;11648;49.306;6.934;2023-03-23T04:19:37;97609.09;;;15.47;72.45
22964;BME280;11648;49.306;6.934;2023-03-23T04:22:04;97603.19;;;15.20;72.72
22964;BME280;11648;49.306;6.934;2023-03-23T04:24:32;97609.22;;;15.03;73.71
22964;BME280;11648;49.306;6.934;2023-03-23T04:27:00;97601.41;;;15.41;72.93
22964;BME280;11648;49.306;6.934;2023-03-23T04:29:28;97598.19;;;15.54;71.93
22964;BME280;11648;49.306;6.934;2023-03-23T04:32:28;97599.41;;;15.46;72.94
22964;BME280;11648;49.306;6.934;2023-03-23T04:34:55;97601.06;;;15.28;72.98
22964;BME280;11648;49.306;6.934;2023-03-23T04:37:27;97595.50;;;14.94;74.38
22964;BME280;11648;49.306;6.934;2023-03-23T04:40:00;97596.91;;;15.22;73.83
22964;BME280;11648;49.306;6.934;2023-03-23T04:42:29;97603.53;;;15.32;73.02
22964;BME280;11648;49.306;6.934;2023-03-23T04:45:16;97603.00;;;15.65;73.13
22964;BME280;11648;49.306;6.934;2023-03-23T04:47:49;97609.34;;;15.00;74.75
22964;BME280;11648;49.306;6.934;2023-03-23T04:50:33;97605.41;;;15.51;73.69
22964;BME280;11648;49.306;6.934;2023-03-23T04:53:07;97606.78;;;15.59;73.68
22964;BME280;11648;49.306;6.934;2023-03-23T04:55:35;97607.88;;;15.55;73.70
22964;BME280;11648;49.306;6.934;2023-03-23T04:58:06;97612.34;;;15.13;74.86
22964;BME280;11648;49.306;6.934;2023-03-23T05:00:37;97611.88;;;15.23;73.78
22964;BME280;11648;49.306;6.934;2023-03-23T05:03:03;97616.19;;;15.46;74.16
22964;BME280;11648;49.306;6.934;2023-03-23T05:05:31;97621.81;;;15.39;73.76
22964;BME280;11648;49.306;6.934;2023-03-23T05:08:02;97623.22;;;15.27;74.15
22964;BME280;11648;49.306;6.934;2023-03-23T05:10:31;97620.09;;;15.17;75.27
22964;BME280;11648;49.306;6.934;2023-03-23T05:13:03;97620.25;;;15.14;74.71
22964;BME280;11648;49.306;6.934;2023-03-23T05:15:28;97620.78;;;15.22;74.91
22964;BME280;11648;49.306;6.934;2023-03-23T05:17:56;97614.75;;;15.19;74.56
22964;BME280;11648;49.306;6.934;2023-03-23T05:20:23;97619.34;;;14.94;75.38
22964;BME280;11648;49.306;6.934;2023-03-23T05:22:55;97628.69;;;15.02;74.98
22964;BME280;11648;49.306;6.934;2023-03-23T05:25:28;97631.09;;;15.08;75.73
22964;BME280;11648;49.306;6.934;2023-03-23T05:28:00;97632.16;;;15.04;74.77
22964;BME280;11648;49.306;6.934;2023-03-23T05:30:55;97626.03;;;14.82;75.70
22964;BME280;11648;49.306;6.934;2023-03-23T05:33:23;97628.91;;;14.98;76.42
22964;BME280;11648;49.306;6.934;2023-03-23T05:35:53;97606.75;;;14.99;76.00
22964;BME280;11648;49.306;6.934;2023-03-23T05:38:24;97614.59;;;15.22;74.54
22964;BME280;11648;49.306;6.934;2023-03-23T05:40:51;97614.50;;;14.83;75.67
22964;BME280;11648;49.306;6.934;2023-03-23T05:43:24;97611.31;;;14.95;75.18
22964;BME280;11648;49.306;6.934;2023-03-23T05:46:07;97614.53;;;15.03;74.80
22964;BME280;11648;49.306;6.934;2023-03-23T05:48:35;97616.41;;;14.79;75.64
22964;BME280;11648;49.306;6.934;2023-03-23T05:51:01;97613.56;;;14.62;76.39
22964;BME280;11648;49.306;6.934;2023-03-23T05:53:29;97621.56;;;15.04;75.56
22964;BME280;11648;49.306;6.934;2023-03-23T05:56:00;97627.09;;;14.98;75.32
22964;BME280;11648;49.306;6.934;2023-03-23T05:58:44;97625.25;;;15.00;75.28
22964;BME280;11648;49.306;6.934;2023-03-23T06:01:10;97634.13;;;14.99;75.52
22964;BME280;11648;49.306;6.934;2023-03-23T06:03:40;97639.84;;;15.10;75.00
22964;BME280;11648;49.306;6.934;2023-03-23T06:06:22;97638.94;;;15.11;75.09
22964;BME280;11648;49.306;6.934;2023-03-23T06:08:56;97628.59;;;14.83;75.84
22964;BME280;11648;49.306;6.934;2023-03-23T06:11:35;97629.09;;;14.93;75.79
22964;BME280;11648;49.306;6.934;2023-03-23T06:14:33;97644.81;;;15.18;74.51
22964;BME280;11648;49.306;6.934;2023-03-23T06:16:59;97651.69;;;14.80;75.79
22964;BME280;11648;49.306;6.934;2023-03-23T06:19:25;97648.94;;;15.05;75.56
22964;BME280;11648;49.306;6.934;2023-03-23T06:22:01;97655.78;;;14.89;74.97
22964;BME280;11648;49.306;6.934;2023-03-23T06:24:43;97663.38;;;14.98;74.73
22964;BME280;11648;49.306;6.934;2023-03-23T06:27:10;97664.88;;;15.03;75.03
22964;BME280;11648;49.306;6.934;2023-03-23T06:29:36;97664.84;;;15.25;74.41
22964;BME280;11648;49.306;6.934;2023-03-23T06:32:04;97679.44;;;15.35;73.62
22964;BME280;11648;49.306;6.934;2023-03-23T06:34:31;97678.31;;;14.99;75.21
22964;BME280;11648;49.306;6.934;2023-03-23T06:37:16;97685.00;;;14.65;76.00
22964;BME280;11648;49.306;6.934;2023-03-23T06:40:02;97683.13;;;15.11;75.38
22964;BME280;11648;49.306;6.934;2023-03-23T06:42:37;97683.88;;;14.93;75.91
22964;BME280;11648;49.306;6.934;2023-03-23T06:45:21;97683.00;;;14.92;76.58
22964;BME280;11648;49.306;6.934;2023-03-23T06:47:52;97685.78;;;14.89;77.24
22964;BME280;11648;49.306;6.934;2023-03-23T06:50:17;97698.34;;;14.62;77.76
22964;BME280;11648;49.306;6.934;2023-03-23T06:52:46;97700.81;;;14.67;78.47
22964;BME280;11648;49.306;6.934;2023-03-23T06:55:13;97703.63;;;14.62;78.71
22964;BME280;11648;49.306;6.934;2023-03-23T06:57:39;97702.84;;;14.60;79.05
22964;BME280;11648;49.306;6.934;2023-03-23T07:00:06;97707.97;;;14.87;77.85
22964;BME280;11648;49.306;6.934;2023-03-23T07:02:33;97706.69;;;14.75;78.50
22964;BME280;11648;49.306;6.934;2023-03-23T07:04:59;97706.50;;;14.79;78.98
22964;BME280;11648;49.306;6.934;2023-03-23T07:07:26;97707.16;;;14.84;78.24
22964;BME280;11648;49.306;6.934;2023-03-23T07:10:09;97711.00;;;14.99;77.79
22964;BME280;11648;49.306;6.934;2023-03-23T07:12:36;97711.41;;;15.10;77.46
22964;BME280;11648;49.306;6.934;2023-03-23T07:15:04;97719.38;;;14.89;78.31
22964;BME280;11648;49.306;6.934;2023-03-23T07:17:31;97711.38;;;14.90;78.60
22964;BME280;11648;49.306;6.934;2023-03-23T07:20:05;97700.47;;;14.98;79.28
22964;BME280;11648;49.306;6.934;2023-03-23T07:22:31;97702.16;;;15.20;77.05
22964;BME280;11648;49.306;6.934;2023-03-23T07:25:06;97705.50;;;15.25;76.86
22964;BME280;11648;49.306;6.934;2023-03-23T07:27:44;97713.72;;;15.19;77.58
22964;BME280;11648;49.306;6.934;2023-03-23T07:30:12;97713.31;;;15.07;77.10
22964;BME280;11648;49.306;6.934;2023-03-23T07:32:40;97712.72;;;15.22;77.11
22964;BME280;11648;49.306;6.934;2023-03-23T07:35:07;97728.66;;;15.20;76.62
22964;BME280;11648;49.306;6.934;2023-03-23T07:37:48;97727.63;;;15.03;77.46
22964;BME280;11648;49.306;6.934;2023-03-23T07:40:17;97727.94;;;15.17;78.33
22964;BME280;11648;49.306;6.934;2023-03-23T07:42:54;97734.59;;;15.05;78.56
22964;BME280;11648;49.306;6.934;2023-03-23T07:45:35;97737.31;;;15.04;78.90
22964;BME280;11648;49.306;6.934;2023-03-23T07:48:01;97744.53;;;15.00;77.56
22964;BME280;11648;49.306;6.934;2023-03-23T07:50:29;97743.69;;;14.76;78.83
22964;BME280;11648;49.306;6.934;2023-03-23T07:52:56;97749.41;;;15.11;78.41
22964;BME280;11648;49.306;6.934;2023-03-23T07:55:24;97744.81;;;14.93;78.51
22964;BME280;11648;49.306;6.934;2023-03-23T07:58:03;97744.66;;;15.19;77.71
22964;BME280;11648;49.306;6.934;2023-03-23T08:00:28;97755.78;;;15.05;78.34
22964;BME280;11648;49.306;6.934;2023-03-23T08:02:57;97756.44;;;15.33;77.81
22964;BME280;11648;49.306;6.934;2023-03-23T08:05:31;97760.91;;;15.10;78.24
22964;BME280;11648;49.306;6.934;2023-03-23T08:08:10;97765.63;;;14.80;79.82
22964;BME280;11648;49.306;6.934;2023-03-23T08:10:54;97762.59;;;14.91;79.65
22964;BME280;11648;49.306;6.934;2023-03-23T08:13:41;97771.66;;;14.83;80.43
22964;BME280;11648;49.306;6.934;2023-03-23T08:16:25;97767.25;;;14.84;80.40
22964;BME280;11648;49.306;6.934;2023-03-23T08:19:09;97775.16;;;14.86;81.85
22964;BME280;11648;49.306;6.934;2023-03-23T08:21:48;97772.31;;;14.90;81.74
22964;BME280;11648;49.306;6.934;2023-03-23T08:24:33;97781.81;;;14.96;81.46
22964;BME280;11648;49.306;6.934;2023-03-23T08:27:13;97782.75;;;15.16;80.59
22964;BME280;11648;49.306;6.934;2023-03-23T08:29:48;97788.47;;;15.06;81.54
22964;BME280;11648;49.306;6.934;2023-03-23T08:32:23;97798.56;;;14.96;81.51
22964;BME280;11648;49.306;6.934;2023-03-23T08:35:13;97790.19;;;15.07;81.57
22964;BME280;11648;49.306;6.934;2023-03-23T08:37:53;97779.59;;;15.28;82.08
22964;BME280;11648;49.306;6.934;2023-03-23T08:40:36;97788.72;;;15.43;80.88
22964;BME280;11648;49.306;6.934;2023-03-23T08:43:21;97787.06;;;15.41;80.90
22964;BME280;11648;49.306;6.934;2023-03-23T08:46:06;97776.25;;;15.67;79.52
22964;BME280;11648;49.306;6.934;2023-03-23T08:48:55;97789.38;;;16.12;78.27
22964;BME280;11648;49.306;6.934;2023-03-23T08:51:44;97796.13;;;15.78;79.20
22964;BME280;11648;49.306;6.934;2023-03-23T08:54:30;97794.19;;;15.82;78.21
22964;BME280;11648;49.306;6.934;2023-03-23T08:56:59;97790.81;;;15.13;80.84
22964;BME280;11648;49.306;6.934;2023-03-23T08:59:55;97803.59;;;14.80;82.56
22964;BME280;11648;49.306;6.934;2023-03-23T09:02:41;97797.66;;;14.97;82.89
22964;BME280;11648;49.306;6.934;2023-03-23T09:05:20;97799.50;;;15.39;81.88
22964;BME280;11648;49.306;6.934;2023-03-23T09:08:15;97802.72;;;15.25;81.40
22964;BME280;11648;49.306;6.934;2023-03-23T09:10:40;97801.06;;;15.22;82.15
22964;BME280;11648;49.306;6.934;2023-03-23T09:13:06;97807.16;;;15.24;80.97
22964;BME280;11648;49.306;6.934;2023-03-23T09:15:33;97804.06;;;15.13;82.26
22964;BME280;11648;49.306;6.934;2023-03-23T09:17:59;97797.88;;;15.36;81.08
22964;BME280;11648;49.306;6.934;2023-03-23T09:20:27;97801.47;;;14.90;83.23
22964;BME280;11648;49.306;6.934;2023-03-23T09:22:55;97798.16;;;15.28;81.32
22964;BME280;11648;49.306;6.934;2023-03-23T09:25:23;97800.56;;;15.34;81.31
22964;BME280;11648;49.306;6.934;2023-03-23T09:27:52;97802.44;;;15.32;80.09
22964;BME280;11648;49.306;6.934;2023-03-23T09:30:20;97800.94;;;15.04;80.97
22964;BME280;11648;49.306;6.934;2023-03-23T09:32:46;97808.16;;;15.22;81.29
22964;BME280;11648;49.306;6.934;2023-03-23T09:35:14;97808.47;;;15.14;80.23
22964;BME280;11648;49.306;6.934;2023-03-23T09:37:43;97807.81;;;14.86;80.66
22964;BME280;11648;49.306;6.934;2023-03-23T09:40:12;97800.44;;;15.59;79.20
22964;BME280;11648;49.306;6.934;2023-03-23T09:53:39;97811.22;;;15.98;80.14
22964;BME280;11648;49.306;6.934;2023-03-23T09:56:12;97809.66;;;16.13;79.24
22964;BME280;11648;49.306;6.934;2023-03-23T10:01:28;97808.47;;;16.00;79.02
22964;BME280;11648;49.306;6.934;2023-03-23T10:06:57;97806.75;;;16.19;80.06
22964;BME280;11648;49.306;6.934;2023-03-23T10:09:24;97809.94;;;16.27;78.98
22964;BME280;11648;49.306;6.934;2023-03-23T10:12:03;97812.03;;;15.99;79.41
22964;BME280;11648;49.306;6.934;2023-03-23T10:17:41;97797.25;;;15.73;81.18
22964;BME280;11648;49.306;6.934;2023-03-23T10:25:19;97802.16;;;16.82;78.27
22964;BME280;11648;49.306;6.934;2023-03-23T10:28:10;97800.72;;;16.74;77.42
22964;BME280;11648;49.306;6.934;2023-03-23T10:30:49;97810.69;;;16.49;79.24
22964;BME280;11648;49.306;6.934;2023-03-23T10:33:21;97816.03;;;16.69;78.41
22964;BME280;11648;49.306;6.934;2023-03-23T10:36:00;97820.97;;;16.58;76.87
22964;BME280;11648;49.306;6.934;2023-03-23T10:38:35;97817.81;;;16.49;75.27
22964;BME280;11648;49.306;6.934;2023-03-23T10:41:09;97803.50;;;16.71;75.62
22964;BME280;11648;49.306;6.934;2023-03-23T10:43:38;97812.56;;;16.47;77.73
22964;BME280;11648;49.306;6.934;2023-03-23T10:48:56;97820.00;;;16.39;77.75
22964;BME280;11648;49.306;6.934;2023-03-23T10:51:31;97822.84;;;16.75;77.16
22964;BME280;11648;49.306;6.934;2023-03-23T10:54:00;97810.91;;;16.24;78.69
22964;BME280;11648;49.306;6.934;2023-03-23T10:56:34;97813.03;;;15.76;79.73
22964;BME280;11648;49.306;6.934;2023-03-23T10:59:11;97818.25;;;15.77;81.22
22964;BME280;11648;49.306;6.934;2023-03-23T11:01:37;97824.94;;;16.28;79.37
22964;BME280;11648;49.306;6.934;2023-03-23T11:04:03;97818.75;;;16.48;77.68
22964;BME280;11648;49.306;6.934;2023-03-23T11:06:31;97817.50;;;16.56;76.88
22964;BME280;11648;49.306;6.934;2023-03-23T11:09:12;97809.44;;;15.77;77.48
22964;BME280;11648;49.306;6.934;2023-03-23T11:11:43;97806.47;;;15.85;77.21
22964;BME280;11648;49.306;6.934;2023-03-23T11:16:57;97810.56;;;15.71;76.30
22964;BME280;11648;49.306;6.934;2023-03-23T11:19:44;97820.91;;;15.77;76.65
22964;BME280;11648;49.306;6.934;2023-03-23T11:22:28;97813.19;;;15.93;75.72
22964;BME280;11648;49.306;6.934;2023-03-23T11:24:59;97817.63;;;15.93;76.54
22964;BME280;11648;49.306;6.934;2023-03-23T11:27:26;97808.28;;;15.84;77.10
22964;BME280;11648;49.306;6.934;2023-03-23T11:30:27;97816.97;;;16.28;76.14
22964;BME280;11648;49.306;6.934;2023-03-23T11:32:59;97809.00;;;16.48;75.68
22964;BME280;11648;49.306;6.934;2023-03-23T11:35:28;97801.31;;;16.22;76.92
22964;BME280;11648;49.306;6.934;2023-03-23T11:37:56;97806.34;;;16.28;76.22
22964;BME280;11648;49.306;6.934;2023-03-23T11:40:27;97803.25;;;15.98;76.95
22964;BME280;11648;49.306;6.934;2023-03-23T11:43:07;97798.63;;;16.42;75.58
22964;BME280;11648;49.306;6.934;2023-03-23T11:50:55;97813.81;;;16.39;75.60
22964;BME280;11648;49.306;6.934;2023-03-23T11:56:37;97816.63;;;15.53;77.32
22964;BME280;11648;49.306;6.934;2023-03-23T11:59:25;97800.09;;;15.68;77.53
22964;BME280;11648;49.306;6.934;2023-03-23T12:04:33;97761.19;;;16.28;73.92
22964;BME280;11648;49.306;6.934;2023-03-23T12:07:12;97733.56;;;17.25;71.95
22964;BME280;11648;49.306;6.934;2023-03-23T12:12:54;97750.56;;;17.40;67.71
22964;BME280;11648;49.306;6.934;2023-03-23T12:26:16;97752.13;;;17.44;65.94
22964;BME280;11648;49.306;6.934;2023-03-23T12:34:28;97746.69;;;16.74;67.88
22964;BME280;11648;49.306;6.934;2023-03-23T12:37:09;97753.59;;;16.78;68.32
22964;BME280;11648;49.306;6.934;2023-03-23T12:39:50;97753.00;;;16.90;68.27
22964;BME280;11648;49.306;6.934;2023-03-23T12:44:48;97752.09;;;16.34;69.42
22964;BME280;11648;49.306;6.934;2023-03-23T12:47:39;97740.75;;;16.69;69.21
22964;BME280;11648;49.306;6.934;2023-03-23T12:53:10;97733.88;;;17.01;68.99
22964;BME280;11648;49.306;6.934;2023-03-23T12:55:49;97747.03;;;17.04;68.78
22964;BME280;11648;49.306;6.934;2023-03-23T12:58:22;97750.16;;;16.95;68.63
22964;BME280;11648;49.306;6.934;2023-03-23T13:00:57;97751.78;;;17.16;67.41
22964;BME280;11648;49.306;6.934;2023-03-23T13:08:49;97748.88;;;16.85;68.54
22964;BME280;11648;49.306;6.934;2023-03-23T13:11:24;97737.41;;;16.64;69.40
22964;BME280;11648;49.306;6.934;2023-03-23T13:13:53;97753.66;;;16.58;68.79
22964;BME280;11648;49.306;6.934;2023-03-23T13:16:55;97732.81;;;16.67;69.18
22964;BME280;11648;49.306;6.934;2023-03-23T13:24:55;97716.41;;;17.14;68.09
22964;BME280;11648;49.306;6.934;2023-03-23T13:27:26;97724.13;;;17.37;67.87
22964;BME280;11648;49.306;6.934;2023-03-23T13:29:56;97727.72;;;17.36;67.81
22964;BME280;11648;49.306;6.934;2023-03-23T13:32:37;97724.59;;;17.45;67.64
22964;BME280;11648;49.306;6.934;2023-03-23T13:35:13;97725.16;;;16.80;68.95
22964;BME280;11648;49.306;6.934;2023-03-23T13:37:45;97741.25;;;16.58;69.91
22964;BME280;11648;49.306;6.934;2023-03-23T13:40:25;97717.38;;;16.57;70.24
22964;BME280;11648;49.306;6.934;2023-03-23T13:42:58;97719.53;;;16.67;69.43
22964;BME280;11648;49.306;6.934;2023-03-23T13:45:42;97724.69;;;16.70;70.03
22964;BME280;11648;49.306;6.934;2023-03-23T13:50:58;97739.88;;;16.29;71.66
22964;BME280;11648;49.306;6.934;2023-03-23T13:56:04;97747.41;;;16.20;72.61
22964;BME280;11648;49.306;6.934;2023-03-23T13:58:30;97749.72;;;16.46;73.24
22964;BME280;11648;49.306;6.934;2023-03-23T14:03:39;97744.13;;;16.34;75.32
22964;BME280;11648;49.306;6.934;2023-03-23T14:06:12;97741.03;;;16.43;74.48
22964;BME280;11648;49.306;6.934;2023-03-23T14:09:04;97738.66;;;15.98;75.28
22964;BME280;11648;49.306;6.934;2023-03-23T14:11:32;97713.09;;;16.15;74.88
22964;BME280;11648;49.306;6.934;2023-03-23T14:14:14;97730.84;;;16.34;73.94
22964;BME280;11648;49.306;6.934;2023-03-23T14:16:49;97718.41;;;16.53;73.50
22964;BME280;11648;49.306;6.934;2023-03-23T14:19:27;97722.91;;;16.52;73.53
22964;BME280;11648;49.306;6.934;2023-03-23T14:21:59;97719.13;;;16.58;72.11
22964;BME280;11648;49.306;6.934;2023-03-23T14:24:31;97728.88;;;16.76;71.79
22964;BME280;11648;49.306;6.934;2023-03-23T14:27:10;97716.53;;;17.11;71.14
22964;BME280;11648;49.306;6.934;2023-03-23T14:29:36;97725.03;;;17.19;70.13
22964;BME280;11648;49.306;6.934;2023-03-23T14:32:05;97713.59;;;16.81;71.64
22964;BME280;11648;49.306;6.934;2023-03-23T14:34:32;97710.41;;;16.92;71.43
22964;BME280;11648;49.306;6.934;2023-03-23T14:36:58;97719.31;;;16.91;70.58
22964;BME280;11648;49.306;6.934;2023-03-23T14:39:29;97697.13;;;16.92;70.70
22964;BME280;11648;49.306;6.934;2023-03-23T14:42:00;97716.88;;;16.67;71.49
22964;BME280;11648;49.306;6.934;2023-03-23T14:44:30;97708.50;;;17.12;69.85
22964;BME280;11648;49.306;6.934;2023-03-23T14:47:04;97709.41;;;16.94;69.78
22964;BME280;11648;49.306;6.934;2023-03-23T14:49:40;97707.59;;;17.13;69.50
22964;BME280;11648;49.306;6.934;2023-03-23T14:54:37;97703.75;;;17.53;68.47
22964;BME280;11648;49.306;6.934;2023-03-23T14:57:26;97698.66;;;17.32;68.43
22964;BME280;11648;49.306;6.934;2023-03-23T14:59:52;97697.84;;;17.83;66.47
22964;BME280;11648;49.306;6.934;2023-03-23T15:02:35;97694.00;;;17.54;67.06
22964;BME280;11648;49.306;6.934;2023-03-23T15:05:11;97692.75;;;17.61;65.84
22964;BME280;11648;49.306;6.934;2023-03-23T15:07:40;97699.41;;;17.52;66.51
22964;BME280;11648;49.306;6.934;2023-03-23T15:10:09;97703.31;;;18.14;65.00
22964;BME280;11648;49.306;6.934;2023-03-23T15:12:43;97695.38;;;18.12;64.30
22964;BME280;11648;49.306;6.934;2023-03-23T15:15:30;97691.38;;;18.04;64.67
22964;BME280;11648;49.306;6.934;2023-03-23T15:17:57;97691.63;;;18.16;64.43